sensor_id;sensor_type;location;lat;lon;timestamp;temperature;humidity
14144;DHT22;7152;48.348;10.980;2022-12-18T00:00:43;-4.00;99.90
14144;DHT22;7152;48.348;10.980;2022-12-18T00:03:09;-4.00;99.90
14144;DHT22;7152;48.348;10.980;2022-12-18T00:05:35;-4.10;99.90
14144;DHT22;7152;48.348;10.980;2022-12-18T00:08:01;-4.00;99.90
14144;DHT22;7152;48.348;10.980;2022-12-18T00:10:28;-4.00;99.90
14144;DHT22;7152;48.348;10.980;2022-12-18T00:12:54;-3.90;99.90
14144;DHT22;7152;48.348;10.980;2022-12-18T00:15:19;-4.00;99.90
14144;DHT22;7152;48.348;10.980;2022-12-18T00:17:45;-4.00;99.90
14144;DHT22;7152;48.348;10.980;2022-12-18T00:20:11;-3.90;99.90
14144;DHT22;7152;48.348;10.980;2022-12-18T00:22:37;-3.90;99.90
14144;DHT22;7152;48.348;10.980;2022-12-18T00:25:03;-3.90;99.90
14144;DHT22;7152;48.348;10.980;2022-12-18T00:27:28;-3.90;99.90
14144;DHT22;7152;48.348;10.980;2022-12-18T00:29:54;-3.90;99.90
14144;DHT22;7152;48.348;10.980;2022-12-18T00:32:19;-3.90;99.90
14144;DHT22;7152;48.348;10.980;2022-12-18T00:34:45;-3.90;99.90
14144;DHT22;7152;48.348;10.980;2022-12-18T00:37:11;-3.90;99.90
14144;DHT22;7152;48.348;10.980;2022-12-18T00:39:36;-3.90;99.90
14144;DHT22;7152;48.348;10.980;2022-12-18T00:42:02;-3.90;99.90
14144;DHT22;7152;48.348;10.980;2022-12-18T00:44:46;-3.80;99.90
14144;DHT22;7152;48.348;10.980;2022-12-18T00:47:12;-3.80;99.90
14144;DHT22;7152;48.348;10.980;2022-12-18T00:49:38;-3.80;99.90
14144;DHT22;7152;48.348;10.980;2022-12-18T00:52:03;-3.80;99.90
14144;DHT22;7152;48.348;10.980;2022-12-18T00:54:29;-3.80;99.90
14144;DHT22;7152;48.348;10.980;2022-12-18T00:56:54;-3.80;99.90
14144;DHT22;7152;48.348;10.980;2022-12-18T00:59:20;-3.80;99.90
14144;DHT22;7152;48.348;10.980;2022-12-18T01:01:46;-3.80;99.90
14144;DHT22;7152;48.348;10.980;2022-12-18T01:04:12;-3.80;99.90
14144;DHT22;7152;48.348;10.980;2022-12-18T01:06:37;-3.90;99.90
14144;DHT22;7152;48.348;10.980;2022-12-18T01:09:03;-3.90;99.90
14144;DHT22;7152;48.348;10.980;2022-12-18T01:11:29;-3.90;99.90
14144;DHT22;7152;48.348;10.980;2022-12-18T01:13:55;-4.00;99.90
14144;DHT22;7152;48.348;10.980;2022-12-18T01:16:21;-4.10;99.90
14144;DHT22;7152;48.348;10.980;2022-12-18T01:18:47;-4.10;99.90
14144;DHT22;7152;48.348;10.980;2022-12-18T01:21:15;-4.00;99.90
14144;DHT22;7152;48.348;10.980;2022-12-18T01:23:41;-4.10;99.90
14144;DHT22;7152;48.348;10.980;2022-12-18T01:26:15;-4.10;99.90
14144;DHT22;7152;48.348;10.980;2022-12-18T01:28:42;-4.20;99.90
14144;DHT22;7152;48.348;10.980;2022-12-18T01:31:13;-4.20;99.90
14144;DHT22;7152;48.348;10.980;2022-12-18T01:33:38;-4.30;99.90
14144;DHT22;7152;48.348;10.980;2022-12-18T01:36:04;-4.30;99.90
14144;DHT22;7152;48.348;10.980;2022-12-18T01:38:30;-4.30;99.90
14144;DHT22;7152;48.348;10.980;2022-12-18T01:40:59;-4.40;99.90
14144;DHT22;7152;48.348;10.980;2022-12-18T01:44:00;-4.40;99.90
14144;DHT22;7152;48.348;10.980;2022-12-18T01:46:27;-4.50;99.90
14144;DHT22;7152;48.348;10.980;2022-12-18T01:48:57;-4.50;99.90
14144;DHT22;7152;48.348;10.980;2022-12-18T01:51:23;-4.50;99.90
14144;DHT22;7152;48.348;10.980;2022-12-18T01:53:49;-4.50;99.90
14144;DHT22;7152;48.348;10.980;2022-12-18T01:56:17;-4.50;99.90
14144;DHT22;7152;48.348;10.980;2022-12-18T01:59:03;-4.50;99.90
14144;DHT22;7152;48.348;10.980;2022-12-18T02:01:31;-4.50;99.90
14144;DHT22;7152;48.348;10.980;2022-12-18T02:04:21;-4.60;99.90
14144;DHT22;7152;48.348;10.980;2022-12-18T02:06:51;-4.50;99.90
14144;DHT22;7152;48.348;10.980;2022-12-18T02:09:27;-4.50;99.90
14144;DHT22;7152;48.348;10.980;2022-12-18T02:12:20;-4.50;99.90
14144;DHT22;7152;48.348;10.980;2022-12-18T02:14:49;-4.50;99.90
14144;DHT22;7152;48.348;10.980;2022-12-18T02:17:22;-4.50;99.90
14144;DHT22;7152;48.348;10.980;2022-12-18T02:27:52;-4.40;99.90
14144;DHT22;7152;48.348;10.980;2022-12-18T02:30:20;-4.40;99.90
14144;DHT22;7152;48.348;10.980;2022-12-18T02:32:49;-4.40;99.90
14144;DHT22;7152;48.348;10.980;2022-12-18T02:35:28;-4.50;99.90
14144;DHT22;7152;48.348;10.980;2022-12-18T02:37:54;-4.50;99.90
14144;DHT22;7152;48.348;10.980;2022-12-18T02:40:23;-4.50;99.90
14144;DHT22;7152;48.348;10.980;2022-12-18T02:42:49;-4.40;99.90
14144;DHT22;7152;48.348;10.980;2022-12-18T02:45:15;-4.40;99.90
14144;DHT22;7152;48.348;10.980;2022-12-18T02:47:44;-4.50;99.90
14144;DHT22;7152;48.348;10.980;2022-12-18T02:50:34;-4.50;99.90
14144;DHT22;7152;48.348;10.980;2022-12-18T03:00:48;-4.30;99.90
14144;DHT22;7152;48.348;10.980;2022-12-18T03:03:35;-4.30;99.90
14144;DHT22;7152;48.348;10.980;2022-12-18T03:06:23;-4.30;99.90
14144;DHT22;7152;48.348;10.980;2022-12-18T03:08:56;-4.30;99.90
14144;DHT22;7152;48.348;10.980;2022-12-18T03:11:23;-4.30;99.90
14144;DHT22;7152;48.348;10.980;2022-12-18T03:14:11;-4.30;99.90
14144;DHT22;7152;48.348;10.980;2022-12-18T03:16:39;-4.30;99.90
14144;DHT22;7152;48.348;10.980;2022-12-18T03:19:11;-4.30;99.90
14144;DHT22;7152;48.348;10.980;2022-12-18T03:21:47;-4.30;99.90
14144;DHT22;7152;48.348;10.980;2022-12-18T03:24:15;-4.30;99.90
14144;DHT22;7152;48.348;10.980;2022-12-18T03:26:44;-4.30;99.90
14144;DHT22;7152;48.348;10.980;2022-12-18T03:29:24;-4.30;99.90
14144;DHT22;7152;48.348;10.980;2022-12-18T03:31:58;-4.40;99.90
14144;DHT22;7152;48.348;10.980;2022-12-18T03:34:32;-4.30;99.90
14144;DHT22;7152;48.348;10.980;2022-12-18T03:36:59;-4.30;99.90
14144;DHT22;7152;48.348;10.980;2022-12-18T03:39:27;-4.30;99.90
14144;DHT22;7152;48.348;10.980;2022-12-18T03:42:07;-4.40;99.90
14144;DHT22;7152;48.348;10.980;2022-12-18T03:47:13;-4.40;99.90
14144;DHT22;7152;48.348;10.980;2022-12-18T03:55:23;-4.40;99.90
14144;DHT22;7152;48.348;10.980;2022-12-18T03:57:51;-4.40;99.90
14144;DHT22;7152;48.348;10.980;2022-12-18T04:00:18;-4.40;99.90
14144;DHT22;7152;48.348;10.980;2022-12-18T04:02:49;-4.40;99.90
14144;DHT22;7152;48.348;10.980;2022-12-18T04:05:17;-4.40;99.90
14144;DHT22;7152;48.348;10.980;2022-12-18T04:07:44;-4.50;99.90
14144;DHT22;7152;48.348;10.980;2022-12-18T04:10:11;-4.40;99.90
14144;DHT22;7152;48.348;10.980;2022-12-18T04:12:38;-4.40;99.90
14144;DHT22;7152;48.348;10.980;2022-12-18T04:15:04;-4.40;99.90
14144;DHT22;7152;48.348;10.980;2022-12-18T04:17:30;-4.40;99.90
14144;DHT22;7152;48.348;10.980;2022-12-18T04:19:55;-4.40;99.90
14144;DHT22;7152;48.348;10.980;2022-12-18T04:22:21;-4.30;99.90
14144;DHT22;7152;48.348;10.980;2022-12-18T04:24:47;-4.30;99.90
14144;DHT22;7152;48.348;10.980;2022-12-18T04:27:13;-4.30;99.90
14144;DHT22;7152;48.348;10.980;2022-12-18T04:29:39;-4.30;99.90
14144;DHT22;7152;48.348;10.980;2022-12-18T04:32:05;-4.40;99.90
14144;DHT22;7152;48.348;10.980;2022-12-18T04:34:30;-4.40;99.90
14144;DHT22;7152;48.348;10.980;2022-12-18T04:36:56;-4.40;99.90
14144;DHT22;7152;48.348;10.980;2022-12-18T04:39:22;-4.50;99.90
14144;DHT22;7152;48.348;10.980;2022-12-18T04:41:47;-4.40;99.90
14144;DHT22;7152;48.348;10.980;2022-12-18T04:44:13;-4.40;99.90
14144;DHT22;7152;48.348;10.980;2022-12-18T04:46:39;-4.40;99.90
14144;DHT22;7152;48.348;10.980;2022-12-18T04:49:04;-4.40;99.90
14144;DHT22;7152;48.348;10.980;2022-12-18T04:51:30;-4.40;99.90
14144;DHT22;7152;48.348;10.980;2022-12-18T04:53:56;-4.30;99.90
14144;DHT22;7152;48.348;10.980;2022-12-18T04:56:21;-4.30;99.90
14144;DHT22;7152;48.348;10.980;2022-12-18T04:58:48;-4.30;99.90
14144;DHT22;7152;48.348;10.980;2022-12-18T05:01:16;-4.30;99.90
14144;DHT22;7152;48.348;10.980;2022-12-18T05:03:42;-4.30;99.90
14144;DHT22;7152;48.348;10.980;2022-12-18T05:06:08;-4.30;99.90
14144;DHT22;7152;48.348;10.980;2022-12-18T05:08:34;-4.30;99.90
14144;DHT22;7152;48.348;10.980;2022-12-18T05:11:01;-4.30;99.90
14144;DHT22;7152;48.348;10.980;2022-12-18T05:13:28;-4.30;99.90
14144;DHT22;7152;48.348;10.980;2022-12-18T05:15:54;-4.30;99.90
14144;DHT22;7152;48.348;10.980;2022-12-18T05:18:19;-4.30;99.90
14144;DHT22;7152;48.348;10.980;2022-12-18T05:20:45;-4.30;99.90
14144;DHT22;7152;48.348;10.980;2022-12-18T05:23:11;-4.30;99.90
14144;DHT22;7152;48.348;10.980;2022-12-18T05:25:36;-4.30;99.90
14144;DHT22;7152;48.348;10.980;2022-12-18T05:28:02;-4.30;99.90
14144;DHT22;7152;48.348;10.980;2022-12-18T05:30:28;-4.40;99.90
14144;DHT22;7152;48.348;10.980;2022-12-18T05:32:54;-4.40;99.90
14144;DHT22;7152;48.348;10.980;2022-12-18T05:35:19;-4.50;99.90
14144;DHT22;7152;48.348;10.980;2022-12-18T05:37:45;-4.50;99.90
14144;DHT22;7152;48.348;10.980;2022-12-18T05:40:11;-4.50;99.90
14144;DHT22;7152;48.348;10.980;2022-12-18T05:42:37;-4.50;99.90
14144;DHT22;7152;48.348;10.980;2022-12-18T05:45:03;-4.50;99.90
14144;DHT22;7152;48.348;10.980;2022-12-18T05:47:29;-4.40;99.90
14144;DHT22;7152;48.348;10.980;2022-12-18T05:49:55;-4.40;99.90
14144;DHT22;7152;48.348;10.980;2022-12-18T05:52:21;-4.40;99.90
14144;DHT22;7152;48.348;10.980;2022-12-18T05:54:46;-4.40;99.90
14144;DHT22;7152;48.348;10.980;2022-12-18T05:57:12;-4.30;99.90
14144;DHT22;7152;48.348;10.980;2022-12-18T05:59:38;-4.30;99.90
14144;DHT22;7152;48.348;10.980;2022-12-18T06:02:03;-4.40;99.90
14144;DHT22;7152;48.348;10.980;2022-12-18T06:04:29;-4.30;99.90
14144;DHT22;7152;48.348;10.980;2022-12-18T06:06:58;-4.30;99.90
14144;DHT22;7152;48.348;10.980;2022-12-18T06:09:24;-5.00;99.90
14144;DHT22;7152;48.348;10.980;2022-12-18T06:11:51;-4.40;99.90
14144;DHT22;7152;48.348;10.980;2022-12-18T06:14:17;-4.30;99.90
14144;DHT22;7152;48.348;10.980;2022-12-18T06:16:43;-4.30;99.90
14144;DHT22;7152;48.348;10.980;2022-12-18T06:19:14;-4.30;99.90
14144;DHT22;7152;48.348;10.980;2022-12-18T06:21:40;-4.30;99.90
14144;DHT22;7152;48.348;10.980;2022-12-18T06:24:06;-4.30;99.90
14144;DHT22;7152;48.348;10.980;2022-12-18T06:26:31;-4.30;99.90
14144;DHT22;7152;48.348;10.980;2022-12-18T06:28:57;-4.30;99.90
14144;DHT22;7152;48.348;10.980;2022-12-18T06:31:23;-4.40;99.90
14144;DHT22;7152;48.348;10.980;2022-12-18T06:33:49;-4.40;99.90
14144;DHT22;7152;48.348;10.980;2022-12-18T06:36:14;-4.30;99.90
14144;DHT22;7152;48.348;10.980;2022-12-18T06:38:42;-4.40;99.90
14144;DHT22;7152;48.348;10.980;2022-12-18T06:41:09;-4.30;99.90
14144;DHT22;7152;48.348;10.980;2022-12-18T06:43:35;-4.30;99.90
14144;DHT22;7152;48.348;10.980;2022-12-18T06:46:03;-4.30;99.90
14144;DHT22;7152;48.348;10.980;2022-12-18T06:48:29;-4.30;99.90
14144;DHT22;7152;48.348;10.980;2022-12-18T06:50:55;-4.30;99.90
14144;DHT22;7152;48.348;10.980;2022-12-18T06:53:21;-4.20;99.90
14144;DHT22;7152;48.348;10.980;2022-12-18T06:55:46;-4.20;99.90
14144;DHT22;7152;48.348;10.980;2022-12-18T06:58:12;-4.20;99.90
14144;DHT22;7152;48.348;10.980;2022-12-18T07:00:37;-4.30;99.90
14144;DHT22;7152;48.348;10.980;2022-12-18T07:03:03;-4.20;99.90
14144;DHT22;7152;48.348;10.980;2022-12-18T07:05:29;-4.30;99.90
14144;DHT22;7152;48.348;10.980;2022-12-18T07:07:55;-4.20;99.90
14144;DHT22;7152;48.348;10.980;2022-12-18T07:10:20;-4.20;99.90
14144;DHT22;7152;48.348;10.980;2022-12-18T07:12:46;-4.20;99.90
14144;DHT22;7152;48.348;10.980;2022-12-18T07:15:12;-4.20;99.90
14144;DHT22;7152;48.348;10.980;2022-12-18T07:17:38;-4.30;99.90
14144;DHT22;7152;48.348;10.980;2022-12-18T07:20:03;-4.30;99.90
14144;DHT22;7152;48.348;10.980;2022-12-18T07:22:30;-4.20;99.90
14144;DHT22;7152;48.348;10.980;2022-12-18T07:24:55;-4.20;99.90
14144;DHT22;7152;48.348;10.980;2022-12-18T07:27:21;-4.20;99.90
14144;DHT22;7152;48.348;10.980;2022-12-18T07:29:47;-4.20;99.90
14144;DHT22;7152;48.348;10.980;2022-12-18T07:32:13;-4.20;99.90
14144;DHT22;7152;48.348;10.980;2022-12-18T07:34:39;-4.20;99.90
14144;DHT22;7152;48.348;10.980;2022-12-18T07:37:04;-4.20;99.90
14144;DHT22;7152;48.348;10.980;2022-12-18T07:39:30;-4.20;99.90
14144;DHT22;7152;48.348;10.980;2022-12-18T07:41:56;-4.20;99.90
14144;DHT22;7152;48.348;10.980;2022-12-18T07:44:40;-4.10;99.90
14144;DHT22;7152;48.348;10.980;2022-12-18T07:47:06;-4.10;99.90
14144;DHT22;7152;48.348;10.980;2022-12-18T07:49:31;-4.10;99.90
14144;DHT22;7152;48.348;10.980;2022-12-18T07:51:57;-4.10;99.90
14144;DHT22;7152;48.348;10.980;2022-12-18T07:54:24;-4.00;99.90
14144;DHT22;7152;48.348;10.980;2022-12-18T07:56:51;-4.00;99.90
14144;DHT22;7152;48.348;10.980;2022-12-18T07:59:17;-4.00;99.90
14144;DHT22;7152;48.348;10.980;2022-12-18T08:01:42;-4.00;99.90
14144;DHT22;7152;48.348;10.980;2022-12-18T08:04:08;-3.90;99.90
14144;DHT22;7152;48.348;10.980;2022-12-18T08:06:34;-3.90;99.90
14144;DHT22;7152;48.348;10.980;2022-12-18T08:08:59;-3.90;99.90
14144;DHT22;7152;48.348;10.980;2022-12-18T08:11:26;-3.80;99.90
14144;DHT22;7152;48.348;10.980;2022-12-18T08:13:53;-3.80;99.90
14144;DHT22;7152;48.348;10.980;2022-12-18T08:16:19;-3.80;99.90
14144;DHT22;7152;48.348;10.980;2022-12-18T08:18:45;-3.70;99.90
14144;DHT22;7152;48.348;10.980;2022-12-18T08:21:11;-3.70;99.90
14144;DHT22;7152;48.348;10.980;2022-12-18T08:23:37;-3.70;99.90
14144;DHT22;7152;48.348;10.980;2022-12-18T08:26:03;-3.70;99.90
14144;DHT22;7152;48.348;10.980;2022-12-18T08:28:29;-3.60;99.90
14144;DHT22;7152;48.348;10.980;2022-12-18T08:30:54;-3.60;99.90
14144;DHT22;7152;48.348;10.980;2022-12-18T08:33:20;-3.60;99.90
14144;DHT22;7152;48.348;10.980;2022-12-18T08:35:46;-3.60;99.90
14144;DHT22;7152;48.348;10.980;2022-12-18T08:38:11;-3.50;99.90
14144;DHT22;7152;48.348;10.980;2022-12-18T08:40:37;-3.50;99.90
14144;DHT22;7152;48.348;10.980;2022-12-18T08:43:02;-3.40;99.90
14144;DHT22;7152;48.348;10.980;2022-12-18T08:45:47;-3.40;99.90
14144;DHT22;7152;48.348;10.980;2022-12-18T08:48:12;-3.40;99.90
14144;DHT22;7152;48.348;10.980;2022-12-18T08:50:38;-3.40;99.90
14144;DHT22;7152;48.348;10.980;2022-12-18T08:53:03;-3.40;99.90
14144;DHT22;7152;48.348;10.980;2022-12-18T08:55:29;-3.40;99.90
14144;DHT22;7152;48.348;10.980;2022-12-18T08:57:55;-3.40;99.90
14144;DHT22;7152;48.348;10.980;2022-12-18T09:00:20;-3.30;99.90
14144;DHT22;7152;48.348;10.980;2022-12-18T09:02:46;-3.30;99.90
14144;DHT22;7152;48.348;10.980;2022-12-18T09:05:12;-3.20;99.90
14144;DHT22;7152;48.348;10.980;2022-12-18T09:07:38;-3.20;99.90
14144;DHT22;7152;48.348;10.980;2022-12-18T09:10:04;-3.10;99.90
14144;DHT22;7152;48.348;10.980;2022-12-18T09:12:30;-3.10;99.90
14144;DHT22;7152;48.348;10.980;2022-12-18T09:14:55;-3.00;99.90
14144;DHT22;7152;48.348;10.980;2022-12-18T09:17:22;-2.90;99.90
14144;DHT22;7152;48.348;10.980;2022-12-18T09:19:47;-2.90;99.90
14144;DHT22;7152;48.348;10.980;2022-12-18T09:22:13;-2.80;99.90
14144;DHT22;7152;48.348;10.980;2022-12-18T09:24:38;-2.80;99.90
14144;DHT22;7152;48.348;10.980;2022-12-18T09:27:04;-2.80;99.90
14144;DHT22;7152;48.348;10.980;2022-12-18T09:29:30;-2.60;99.90
14144;DHT22;7152;48.348;10.980;2022-12-18T09:31:55;-2.60;99.90
14144;DHT22;7152;48.348;10.980;2022-12-18T09:34:21;-2.50;99.90
14144;DHT22;7152;48.348;10.980;2022-12-18T09:36:47;-2.50;99.90
14144;DHT22;7152;48.348;10.980;2022-12-18T09:39:13;-2.50;99.90
14144;DHT22;7152;48.348;10.980;2022-12-18T09:47:09;-2.40;99.90
14144;DHT22;7152;48.348;10.980;2022-12-18T09:49:41;-2.50;99.90
14144;DHT22;7152;48.348;10.980;2022-12-18T09:52:26;-2.40;99.90
14144;DHT22;7152;48.348;10.980;2022-12-18T09:55:20;-2.50;99.90
14144;DHT22;7152;48.348;10.980;2022-12-18T09:57:53;-2.50;99.90
14144;DHT22;7152;48.348;10.980;2022-12-18T10:00:23;-2.50;99.90
14144;DHT22;7152;48.348;10.980;2022-12-18T10:02:50;-2.50;99.90
14144;DHT22;7152;48.348;10.980;2022-12-18T10:05:24;-2.40;99.90
14144;DHT22;7152;48.348;10.980;2022-12-18T10:08:05;-2.40;99.90
14144;DHT22;7152;48.348;10.980;2022-12-18T10:22:09;-2.50;99.90
14144;DHT22;7152;48.348;10.980;2022-12-18T10:24:59;-2.50;99.90
14144;DHT22;7152;48.348;10.980;2022-12-18T10:27:27;-2.50;99.90
14144;DHT22;7152;48.348;10.980;2022-12-18T10:29:53;-2.50;99.90
14144;DHT22;7152;48.348;10.980;2022-12-18T10:32:23;-2.50;99.90
14144;DHT22;7152;48.348;10.980;2022-12-18T10:34:50;-2.40;99.90
14144;DHT22;7152;48.348;10.980;2022-12-18T10:37:21;-2.30;99.90
14144;DHT22;7152;48.348;10.980;2022-12-18T10:40:12;-2.30;99.90
14144;DHT22;7152;48.348;10.980;2022-12-18T10:42:39;-2.20;99.90
14144;DHT22;7152;48.348;10.980;2022-12-18T10:45:13;-2.10;99.90
14144;DHT22;7152;48.348;10.980;2022-12-18T10:47:47;-2.10;99.90
14144;DHT22;7152;48.348;10.980;2022-12-18T12:30:10;-1.70;99.90
14144;DHT22;7152;48.348;10.980;2022-12-18T12:40:05;-1.70;99.90
14144;DHT22;7152;48.348;10.980;2022-12-18T12:42:35;-1.70;99.90
14144;DHT22;7152;48.348;10.980;2022-12-18T12:51:17;-1.50;99.90
14144;DHT22;7152;48.348;10.980;2022-12-18T12:53:44;-1.50;99.90
14144;DHT22;7152;48.348;10.980;2022-12-18T12:56:14;-1.50;99.90
14144;DHT22;7152;48.348;10.980;2022-12-18T13:07:39;-1.60;99.90
14144;DHT22;7152;48.348;10.980;2022-12-18T13:10:13;-1.70;99.90
14144;DHT22;7152;48.348;10.980;2022-12-18T13:12:53;-1.80;99.90
14144;DHT22;7152;48.348;10.980;2022-12-18T13:15:32;-1.90;99.90
14144;DHT22;7152;48.348;10.980;2022-12-18T13:20:36;-2.00;99.90
14144;DHT22;7152;48.348;10.980;2022-12-18T13:25:50;-2.20;99.90
14144;DHT22;7152;48.348;10.980;2022-12-18T13:31:07;-2.20;99.90
14144;DHT22;7152;48.348;10.980;2022-12-18T13:33:42;-2.20;99.90
14144;DHT22;7152;48.348;10.980;2022-12-18T13:36:27;-2.30;99.90
14144;DHT22;7152;48.348;10.980;2022-12-18T13:39:23;-2.30;99.90
14144;DHT22;7152;48.348;10.980;2022-12-18T13:42:31;-2.30;99.90
14144;DHT22;7152;48.348;10.980;2022-12-18T13:44:59;-2.40;99.90
14144;DHT22;7152;48.348;10.980;2022-12-18T13:47:33;-2.40;99.90
14144;DHT22;7152;48.348;10.980;2022-12-18T13:50:01;-2.40;99.90
14144;DHT22;7152;48.348;10.980;2022-12-18T13:52:28;-2.50;99.90
14144;DHT22;7152;48.348;10.980;2022-12-18T13:54:59;-2.50;99.90
14144;DHT22;7152;48.348;10.980;2022-12-18T13:57:33;-2.50;99.90
14144;DHT22;7152;48.348;10.980;2022-12-18T14:02:46;-2.60;99.90
14144;DHT22;7152;48.348;10.980;2022-12-18T14:05:39;-2.60;99.90
14144;DHT22;7152;48.348;10.980;2022-12-18T14:08:13;-2.70;99.90
14144;DHT22;7152;48.348;10.980;2022-12-18T14:10:45;-2.70;99.90
14144;DHT22;7152;48.348;10.980;2022-12-18T14:13:17;-2.80;99.90
14144;DHT22;7152;48.348;10.980;2022-12-18T14:15:47;-2.80;99.90
14144;DHT22;7152;48.348;10.980;2022-12-18T14:18:24;-2.80;99.90
14144;DHT22;7152;48.348;10.980;2022-12-18T14:20:54;-2.80;99.90
14144;DHT22;7152;48.348;10.980;2022-12-18T14:23:36;-2.80;99.90
14144;DHT22;7152;48.348;10.980;2022-12-18T14:26:28;-2.80;99.90
14144;DHT22;7152;48.348;10.980;2022-12-18T14:28:59;-2.90;99.90
14144;DHT22;7152;48.348;10.980;2022-12-18T14:31:28;-3.00;99.90
14144;DHT22;7152;48.348;10.980;2022-12-18T14:33:55;-3.10;99.90
14144;DHT22;7152;48.348;10.980;2022-12-18T14:36:26;-3.10;99.90
14144;DHT22;7152;48.348;10.980;2022-12-18T14:38:57;-3.20;99.90
14144;DHT22;7152;48.348;10.980;2022-12-18T14:41:24;-3.30;99.90
14144;DHT22;7152;48.348;10.980;2022-12-18T14:43:52;-3.40;99.90
14144;DHT22;7152;48.348;10.980;2022-12-18T14:46:37;-3.40;99.90
14144;DHT22;7152;48.348;10.980;2022-12-18T14:49:28;-3.50;99.90
14144;DHT22;7152;48.348;10.980;2022-12-18T14:51:59;-3.50;99.90
14144;DHT22;7152;48.348;10.980;2022-12-18T14:54:26;-3.50;99.90
14144;DHT22;7152;48.348;10.980;2022-12-18T14:57:24;-3.50;99.90
14144;DHT22;7152;48.348;10.980;2022-12-18T14:59:51;-3.50;99.90
14144;DHT22;7152;48.348;10.980;2022-12-18T15:02:22;-3.50;99.90
14144;DHT22;7152;48.348;10.980;2022-12-18T15:07:40;-3.60;99.90
14144;DHT22;7152;48.348;10.980;2022-12-18T15:10:14;-3.60;99.90
14144;DHT22;7152;48.348;10.980;2022-12-18T15:25:41;-3.70;99.90
14144;DHT22;7152;48.348;10.980;2022-12-18T15:28:39;-3.70;99.90
14144;DHT22;7152;48.348;10.980;2022-12-18T15:33:38;-3.80;99.90
14144;DHT22;7152;48.348;10.980;2022-12-18T15:36:09;-3.90;99.90
14144;DHT22;7152;48.348;10.980;2022-12-18T15:38:35;-3.90;99.90
14144;DHT22;7152;48.348;10.980;2022-12-18T15:41:00;-3.90;99.90
14144;DHT22;7152;48.348;10.980;2022-12-18T15:43:27;-3.90;99.90
14144;DHT22;7152;48.348;10.980;2022-12-18T15:46:08;-3.90;99.90
14144;DHT22;7152;48.348;10.980;2022-12-18T15:48:39;-3.90;99.90
14144;DHT22;7152;48.348;10.980;2022-12-18T15:51:13;-3.90;99.90
14144;DHT22;7152;48.348;10.980;2022-12-18T15:53:40;-4.00;99.90
14144;DHT22;7152;48.348;10.980;2022-12-18T15:56:10;-3.90;99.90
14144;DHT22;7152;48.348;10.980;2022-12-18T15:58:55;-3.90;99.90
14144;DHT22;7152;48.348;10.980;2022-12-18T16:01:23;-4.00;99.90
14144;DHT22;7152;48.348;10.980;2022-12-18T16:03:49;-4.10;99.90
14144;DHT22;7152;48.348;10.980;2022-12-18T16:06:15;-4.00;99.90
14144;DHT22;7152;48.348;10.980;2022-12-18T16:08:40;-4.00;99.90
14144;DHT22;7152;48.348;10.980;2022-12-18T16:11:17;-3.90;99.90
14144;DHT22;7152;48.348;10.980;2022-12-18T16:13:45;-4.00;99.90
14144;DHT22;7152;48.348;10.980;2022-12-18T16:16:11;-4.00;99.90
14144;DHT22;7152;48.348;10.980;2022-12-18T16:18:36;-4.00;99.90
14144;DHT22;7152;48.348;10.980;2022-12-18T16:21:02;-4.00;99.90
14144;DHT22;7152;48.348;10.980;2022-12-18T16:23:28;-4.00;99.90
14144;DHT22;7152;48.348;10.980;2022-12-18T16:25:54;-4.00;99.90
14144;DHT22;7152;48.348;10.980;2022-12-18T16:28:19;-3.90;99.90
14144;DHT22;7152;48.348;10.980;2022-12-18T16:30:45;-3.90;99.90
14144;DHT22;7152;48.348;10.980;2022-12-18T16:33:11;-3.90;99.90
14144;DHT22;7152;48.348;10.980;2022-12-18T16:35:37;-3.90;99.90
14144;DHT22;7152;48.348;10.980;2022-12-18T16:38:02;-3.90;99.90
14144;DHT22;7152;48.348;10.980;2022-12-18T16:40:31;-3.90;99.90
14144;DHT22;7152;48.348;10.980;2022-12-18T16:42:57;-3.90;99.90
14144;DHT22;7152;48.348;10.980;2022-12-18T16:45:22;-3.90;99.90
14144;DHT22;7152;48.348;10.980;2022-12-18T16:47:48;-3.90;99.90
14144;DHT22;7152;48.348;10.980;2022-12-18T16:50:14;-3.90;99.90
14144;DHT22;7152;48.348;10.980;2022-12-18T16:52:40;-3.90;99.90
14144;DHT22;7152;48.348;10.980;2022-12-18T16:55:06;-3.90;99.90
14144;DHT22;7152;48.348;10.980;2022-12-18T16:57:32;-3.90;99.90
14144;DHT22;7152;48.348;10.980;2022-12-18T16:59:58;-3.90;99.90
14144;DHT22;7152;48.348;10.980;2022-12-18T17:02:25;-4.00;99.90
14144;DHT22;7152;48.348;10.980;2022-12-18T17:04:55;-4.00;99.90
14144;DHT22;7152;48.348;10.980;2022-12-18T17:07:22;-4.00;99.90
14144;DHT22;7152;48.348;10.980;2022-12-18T17:09:47;-4.00;99.90
14144;DHT22;7152;48.348;10.980;2022-12-18T17:12:14;-4.00;99.90
14144;DHT22;7152;48.348;10.980;2022-12-18T17:14:40;-4.00;99.90
14144;DHT22;7152;48.348;10.980;2022-12-18T17:17:06;-3.90;99.90
14144;DHT22;7152;48.348;10.980;2022-12-18T17:19:32;-3.90;99.90
14144;DHT22;7152;48.348;10.980;2022-12-18T17:21:58;-4.00;99.90
14144;DHT22;7152;48.348;10.980;2022-12-18T17:24:23;-4.00;99.90
14144;DHT22;7152;48.348;10.980;2022-12-18T17:26:49;-4.00;99.90
14144;DHT22;7152;48.348;10.980;2022-12-18T17:29:18;-4.00;99.90
14144;DHT22;7152;48.348;10.980;2022-12-18T17:31:45;-4.00;99.90
14144;DHT22;7152;48.348;10.980;2022-12-18T17:34:11;-4.00;99.90
14144;DHT22;7152;48.348;10.980;2022-12-18T17:36:37;-4.00;99.90
14144;DHT22;7152;48.348;10.980;2022-12-18T17:39:04;-4.00;99.90
14144;DHT22;7152;48.348;10.980;2022-12-18T17:41:30;-4.00;99.90
14144;DHT22;7152;48.348;10.980;2022-12-18T17:44:04;-4.00;99.90
14144;DHT22;7152;48.348;10.980;2022-12-18T17:46:31;-4.10;99.90
14144;DHT22;7152;48.348;10.980;2022-12-18T17:48:58;-4.00;99.90
14144;DHT22;7152;48.348;10.980;2022-12-18T17:51:25;-4.10;99.90
14144;DHT22;7152;48.348;10.980;2022-12-18T17:53:50;-4.00;99.90
14144;DHT22;7152;48.348;10.980;2022-12-18T17:56:18;-4.00;99.90
14144;DHT22;7152;48.348;10.980;2022-12-18T17:58:44;-3.90;99.90
14144;DHT22;7152;48.348;10.980;2022-12-18T18:01:16;-3.90;99.90
14144;DHT22;7152;48.348;10.980;2022-12-18T18:03:42;-3.90;99.90
14144;DHT22;7152;48.348;10.980;2022-12-18T18:06:08;-3.90;99.90
14144;DHT22;7152;48.348;10.980;2022-12-18T18:08:34;-3.90;99.90
14144;DHT22;7152;48.348;10.980;2022-12-18T18:11:08;-3.90;99.90
14144;DHT22;7152;48.348;10.980;2022-12-18T18:13:53;-4.00;99.90
14144;DHT22;7152;48.348;10.980;2022-12-18T18:16:43;-4.00;99.90
14144;DHT22;7152;48.348;10.980;2022-12-18T18:19:11;-4.00;99.90
14144;DHT22;7152;48.348;10.980;2022-12-18T18:21:39;-4.00;99.90
14144;DHT22;7152;48.348;10.980;2022-12-18T18:24:05;-4.00;99.90
14144;DHT22;7152;48.348;10.980;2022-12-18T18:26:32;-4.00;99.90
14144;DHT22;7152;48.348;10.980;2022-12-18T18:29:00;-4.00;99.90
14144;DHT22;7152;48.348;10.980;2022-12-18T18:31:27;-3.90;99.90
14144;DHT22;7152;48.348;10.980;2022-12-18T18:33:53;-4.00;99.90
14144;DHT22;7152;48.348;10.980;2022-12-18T18:36:19;-4.00;99.90
14144;DHT22;7152;48.348;10.980;2022-12-18T18:38:45;-4.30;99.90
14144;DHT22;7152;48.348;10.980;2022-12-18T18:41:11;-4.00;99.90
14144;DHT22;7152;48.348;10.980;2022-12-18T18:43:37;-4.00;99.90
14144;DHT22;7152;48.348;10.980;2022-12-18T18:46:04;-4.00;99.90
14144;DHT22;7152;48.348;10.980;2022-12-18T18:48:32;-4.00;99.90
14144;DHT22;7152;48.348;10.980;2022-12-18T18:51:05;-4.10;99.90
14144;DHT22;7152;48.348;10.980;2022-12-18T18:53:35;-4.00;99.90